createdAt,value
2024-03-06T00:00:10.033Z,87.50
2024-03-06T00:02:38.497Z,87.40
2024-03-06T00:05:10.156Z,87.50
2024-03-06T00:07:39.025Z,87.30
2024-03-06T00:10:07.880Z,87.30
2024-03-06T00:12:36.450Z,87.50
2024-03-06T00:15:05.148Z,87.50
2024-03-06T00:17:33.715Z,87.70
2024-03-06T00:20:02.196Z,87.70
2024-03-06T00:22:30.669Z,87.80
2024-03-06T00:24:59.047Z,87.90
2024-03-06T00:27:27.379Z,88.10
2024-03-06T00:29:55.770Z,88.00
2024-03-06T00:32:25.774Z,87.70
2024-03-06T00:34:54.186Z,87.60
2024-03-06T00:37:22.582Z,87.70
2024-03-06T00:39:50.992Z,87.70
2024-03-06T00:42:19.360Z,87.60
2024-03-06T00:44:48.223Z,87.80
2024-03-06T00:47:16.690Z,87.80
2024-03-06T00:49:45.125Z,87.90
2024-03-06T00:52:13.478Z,88.00
2024-03-06T00:54:41.903Z,88.00
2024-03-06T00:57:10.251Z,87.90
2024-03-06T00:59:38.628Z,88.30
2024-03-06T01:02:07.012Z,88.00
2024-03-06T01:04:35.400Z,88.20
2024-03-06T01:07:03.863Z,87.80
2024-03-06T01:09:32.262Z,87.60
2024-03-06T01:12:00.613Z,87.80
2024-03-06T01:14:28.970Z,87.80
2024-03-06T01:16:58.346Z,87.40
2024-03-06T01:19:26.716Z,87.60
2024-03-06T01:21:55.085Z,87.60
2024-03-06T01:24:23.439Z,87.70
2024-03-06T01:26:51.817Z,87.50
2024-03-06T01:29:20.406Z,87.60
2024-03-06T01:31:49.101Z,87.60
2024-03-06T01:34:17.481Z,87.70
2024-03-06T01:36:45.827Z,87.60
2024-03-06T01:39:14.599Z,87.80
2024-03-06T01:41:51.284Z,87.80
2024-03-06T01:44:20.897Z,87.70
2024-03-06T01:46:49.531Z,88.10
2024-03-06T01:49:28.262Z,88.30
2024-03-06T01:52:03.110Z,88.30
2024-03-06T01:54:33.557Z,88.40
2024-03-06T01:57:05.007Z,88.00
2024-03-06T01:59:37.189Z,88.00
2024-03-06T02:02:09.225Z,88.20
2024-03-06T02:04:37.686Z,88.20
2024-03-06T02:07:12.933Z,88.10
2024-03-06T02:09:42.135Z,88.10
2024-03-06T02:12:11.033Z,88.10
2024-03-06T02:14:39.777Z,88.00
2024-03-06T02:17:09.179Z,87.70
2024-03-06T02:19:43.379Z,88.50
2024-03-06T02:22:13.643Z,87.80
2024-03-06T02:24:50.540Z,88.10
2024-03-06T02:27:18.948Z,87.70
2024-03-06T02:29:47.426Z,87.70
2024-03-06T02:32:17.039Z,87.50
2024-03-06T02:34:45.453Z,87.60
2024-03-06T02:37:13.836Z,87.40
2024-03-06T02:39:42.257Z,87.50
2024-03-06T02:42:10.660Z,87.50
2024-03-06T02:44:39.031Z,87.60
2024-03-06T02:47:07.600Z,88.00
2024-03-06T02:49:36.111Z,87.90
2024-03-06T02:52:04.890Z,88.20
2024-03-06T02:54:33.236Z,88.10
2024-03-06T02:57:01.598Z,87.90
2024-03-06T02:59:30.037Z,87.80
2024-03-06T03:01:58.448Z,87.90
2024-03-06T03:04:27.389Z,88.00
2024-03-06T03:06:55.784Z,88.10
2024-03-06T03:09:24.133Z,88.00
2024-03-06T03:11:52.519Z,87.90
2024-03-06T03:14:20.902Z,87.90
2024-03-06T03:16:49.382Z,88.10
2024-03-06T03:19:18.599Z,88.10
2024-03-06T03:21:47.312Z,88.30
2024-03-06T03:24:15.660Z,88.50
2024-03-06T03:26:44.411Z,88.40
2024-03-06T03:29:12.903Z,88.40
2024-03-06T03:31:41.368Z,88.60
2024-03-06T03:34:11.098Z,88.40
2024-03-06T03:36:44.460Z,88.50
2024-03-06T03:39:19.944Z,88.40
2024-03-06T03:41:49.913Z,88.60
2024-03-06T03:44:21.303Z,88.60
2024-03-06T03:46:49.847Z,88.40
2024-03-06T03:49:18.625Z,88.20
2024-03-06T03:51:48.021Z,88.30
2024-03-06T03:54:16.430Z,88.70
2024-03-06T03:56:44.829Z,88.70
2024-03-06T03:59:13.204Z,88.80
2024-03-06T04:01:42.158Z,88.90
2024-03-06T04:04:10.498Z,88.60
2024-03-06T04:06:39.103Z,88.40
2024-03-06T04:09:07.441Z,88.60
2024-03-06T04:11:37.006Z,88.60
2024-03-06T04:14:11.363Z,88.60
2024-03-06T04:16:40.555Z,88.40
2024-03-06T04:19:08.894Z,88.20
2024-03-06T04:21:37.318Z,88.20
2024-03-06T04:24:06.033Z,88.20
2024-03-06T04:26:34.407Z,88.00
2024-03-06T04:29:02.786Z,87.70
2024-03-06T04:31:31.655Z,87.80
2024-03-06T04:33:59.986Z,87.50
2024-03-06T04:36:28.327Z,87.30
2024-03-06T04:38:56.673Z,87.50
2024-03-06T04:41:25.939Z,87.80
2024-03-06T04:43:54.964Z,88.00
2024-03-06T04:46:23.342Z,88.00
2024-03-06T04:48:52.067Z,88.00
2024-03-06T04:51:23.099Z,88.10
2024-03-06T04:53:51.601Z,87.80
2024-03-06T04:56:21.344Z,88.30
2024-03-06T04:58:50.074Z,88.40
2024-03-06T05:01:18.444Z,88.60
2024-03-06T06:00:24.154Z,89.70
2024-03-06T06:02:52.514Z,89.60
2024-03-06T06:05:23.895Z,90.00
2024-03-06T06:07:53.497Z,90.10
2024-03-06T06:10:22.799Z,89.90
2024-03-06T06:12:51.865Z,90.00
2024-03-06T06:15:20.222Z,90.10
2024-03-06T06:17:48.795Z,90.30
2024-03-06T06:20:18.231Z,90.20
2024-03-06T06:22:47.155Z,90.30
2024-03-06T06:25:15.963Z,90.10
2024-03-06T06:27:44.330Z,90.10
2024-03-06T06:30:15.824Z,90.10
2024-03-06T06:32:45.515Z,90.10
2024-03-06T06:35:15.680Z,90.20
2024-03-06T06:37:44.274Z,90.20
2024-03-06T06:40:15.234Z,90.20
2024-03-06T06:42:51.931Z,90.20
2024-03-06T06:45:26.849Z,90.30
2024-03-06T06:47:55.876Z,90.60
2024-03-06T06:50:26.487Z,90.40
2024-03-06T06:52:55.311Z,90.30
2024-03-06T06:55:25.287Z,90.30
2024-03-06T06:57:53.760Z,90.30
2024-03-06T07:00:24.966Z,90.50
2024-03-06T07:02:53.425Z,90.50
2024-03-06T07:05:22.000Z,90.50
2024-03-06T07:07:53.123Z,90.90
2024-03-06T07:10:24.119Z,90.50
2024-03-06T07:12:52.885Z,90.50
2024-03-06T07:15:21.562Z,90.30
2024-03-06T07:17:53.204Z,90.30
2024-03-06T07:20:21.831Z,90.30
2024-03-06T07:22:50.305Z,90.30
2024-03-06T07:25:18.827Z,90.20
2024-03-06T07:27:48.780Z,90.10
2024-03-06T07:30:20.006Z,90.10
2024-03-06T07:32:48.544Z,90.30
2024-03-06T07:35:17.429Z,90.30
2024-03-06T07:38:06.467Z,90.30
2024-03-06T07:40:34.923Z,90.30
2024-03-06T07:43:03.274Z,90.30
2024-03-06T07:45:31.837Z,90.40
2024-03-06T07:48:00.282Z,90.30
2024-03-06T07:50:29.687Z,90.20
2024-03-06T07:52:58.147Z,90.20
2024-03-06T07:55:26.510Z,90.20
2024-03-06T07:57:54.905Z,90.20
2024-03-06T08:00:24.411Z,90.30
2024-03-06T08:02:53.424Z,90.30
2024-03-06T08:05:23.443Z,90.40
2024-03-06T08:07:52.298Z,90.40
2024-03-06T08:10:21.059Z,90.40
2024-03-06T08:12:52.328Z,90.50
2024-03-06T08:15:20.684Z,90.50
2024-03-06T08:17:51.935Z,90.70
2024-03-06T08:20:20.524Z,90.50
2024-03-06T08:22:49.047Z,90.40
2024-03-06T08:25:17.516Z,90.30
2024-03-06T08:27:53.077Z,90.30
2024-03-06T08:30:29.009Z,90.20
2024-03-06T08:33:09.674Z,90.10
2024-03-06T08:35:41.413Z,90.20
2024-03-06T08:38:10.363Z,90.10
2024-03-06T08:40:56.923Z,89.60
2024-03-06T08:43:25.675Z,89.40
2024-03-06T08:45:54.202Z,89.30
2024-03-06T08:48:24.036Z,89.50
2024-03-06T08:50:53.273Z,89.70
2024-03-06T08:53:22.470Z,89.00
2024-03-06T08:55:51.768Z,88.70
2024-03-06T08:58:22.030Z,88.80
2024-03-06T09:00:51.179Z,88.90
2024-03-06T09:06:09.299Z,88.50
2024-03-06T09:08:44.585Z,88.30
2024-03-06T09:11:13.031Z,88.10
2024-03-06T09:13:41.941Z,87.70
2024-03-06T09:16:35.588Z,87.30
2024-03-06T09:19:07.529Z,87.30
2024-03-06T09:21:39.208Z,86.70
2024-03-06T09:24:11.486Z,86.60
2024-03-06T09:26:40.013Z,86.70
2024-03-06T09:29:08.673Z,86.50
2024-03-06T09:31:37.079Z,86.60
2024-03-06T09:34:24.053Z,85.50
2024-03-06T09:36:53.651Z,85.60
2024-03-06T09:42:25.656Z,84.60
2024-03-06T09:44:54.454Z,84.30
2024-03-06T09:47:27.326Z,83.70
2024-03-06T09:49:56.186Z,83.10
2024-03-06T09:52:49.297Z,82.80
2024-03-06T09:55:19.232Z,82.80
2024-03-06T09:57:51.001Z,82.40
2024-03-06T10:00:31.806Z,81.70
2024-03-06T10:03:02.363Z,81.90
2024-03-06T10:05:32.626Z,81.70
2024-03-06T10:08:01.765Z,81.30
2024-03-06T10:10:30.123Z,79.80
2024-03-06T10:13:03.680Z,79.50
2024-03-06T10:15:32.353Z,79.40
2024-03-06T10:18:19.031Z,78.80
2024-03-06T10:20:47.630Z,78.00
2024-03-06T10:23:17.352Z,77.80
2024-03-06T10:25:49.076Z,77.50
2024-03-06T10:28:17.537Z,77.30
2024-03-06T10:30:46.617Z,77.00
2024-03-06T10:33:17.555Z,75.80
2024-03-06T10:35:50.476Z,75.80
2024-03-06T10:38:22.224Z,74.90
2024-03-06T10:40:54.674Z,72.90
2024-03-06T10:43:25.318Z,73.70
2024-03-06T10:46:06.893Z,73.50
2024-03-06T10:48:37.275Z,73.70
2024-03-06T10:51:08.864Z,72.70
2024-03-06T10:53:40.131Z,72.80
2024-03-06T10:56:11.801Z,73.00
2024-03-06T10:58:43.944Z,73.40
2024-03-06T11:01:12.579Z,73.80
2024-03-06T11:03:40.998Z,72.20
2024-03-06T11:06:09.675Z,71.30
2024-03-06T11:08:38.992Z,69.90
2024-03-06T11:11:27.147Z,70.50
2024-03-06T11:14:06.320Z,71.10
2024-03-06T11:17:01.257Z,71.30
2024-03-06T11:19:30.186Z,71.00
2024-03-06T11:21:59.262Z,70.10
2024-03-06T11:24:36.262Z,70.60
2024-03-06T11:27:10.150Z,70.10
2024-03-06T11:30:16.241Z,69.60
2024-03-06T11:33:04.362Z,66.50
2024-03-06T11:35:33.290Z,65.70
2024-03-06T11:38:02.609Z,66.00
2024-03-06T11:40:31.722Z,66.80
2024-03-06T11:43:29.988Z,65.90
2024-03-06T11:46:14.563Z,65.90
2024-03-06T11:48:43.232Z,65.80
2024-03-06T11:51:11.963Z,66.50
2024-03-06T11:53:42.554Z,67.60
2024-03-06T11:56:11.017Z,66.90
2024-03-06T11:58:40.241Z,67.90
2024-03-06T12:01:09.021Z,67.80
2024-03-06T12:03:37.470Z,66.10
2024-03-06T12:06:06.295Z,64.30
2024-03-06T12:08:39.200Z,63.30
2024-03-06T12:11:08.000Z,62.50
2024-03-06T12:13:37.797Z,60.50
2024-03-06T12:16:09.967Z,57.40
2024-03-06T12:18:38.866Z,57.60
2024-03-06T12:21:08.157Z,54.80
2024-03-06T12:23:36.569Z,54.80
2024-03-06T12:26:12.377Z,54.50
2024-03-06T12:28:41.830Z,54.20
2024-03-06T12:31:10.442Z,55.10
2024-03-06T12:33:39.060Z,53.90
2024-03-06T12:36:12.581Z,52.90
2024-03-06T12:38:41.826Z,52.50
2024-03-06T12:41:10.247Z,51.60
2024-03-06T12:43:38.674Z,52.50
2024-03-06T12:46:07.366Z,51.40
2024-03-06T12:48:35.824Z,51.50
2024-03-06T12:51:07.083Z,49.60
2024-03-06T12:53:37.404Z,49.80
2024-03-06T12:56:07.332Z,49.60
2024-03-06T12:58:37.572Z,50.00
2024-03-06T13:01:07.110Z,49.30
2024-03-06T13:03:35.658Z,49.20
2024-03-06T13:06:04.794Z,48.40
2024-03-06T13:08:35.997Z,48.80
2024-03-06T13:11:05.439Z,48.60
2024-03-06T13:13:36.091Z,48.80
2024-03-06T13:16:06.887Z,49.20
2024-03-06T13:18:36.588Z,48.20
2024-03-06T13:21:05.349Z,48.10
2024-03-06T13:23:33.694Z,47.60
2024-03-06T13:26:02.827Z,45.80
2024-03-06T13:28:31.293Z,46.60
2024-03-06T13:30:59.842Z,46.50
2024-03-06T13:33:30.165Z,44.10
2024-03-06T13:35:58.996Z,44.90
2024-03-06T13:38:27.953Z,45.70
2024-03-06T13:40:56.394Z,44.00
2024-03-06T13:43:26.018Z,44.00
2024-03-06T13:45:54.745Z,44.10
2024-03-06T13:48:24.654Z,43.50
2024-03-06T13:50:53.076Z,43.30
2024-03-06T13:53:21.571Z,43.40
2024-03-06T13:55:49.955Z,43.70
2024-03-06T13:58:18.397Z,43.50
2024-03-06T14:00:46.803Z,44.00
2024-03-06T14:03:15.236Z,44.70
2024-03-06T14:05:43.678Z,44.90
2024-03-06T14:08:14.250Z,45.00
2024-03-06T14:10:42.769Z,45.60
2024-03-06T14:13:11.216Z,45.90
2024-03-06T14:15:39.664Z,46.20
2024-03-06T14:18:08.995Z,46.70
2024-03-06T14:20:37.468Z,47.50
2024-03-06T14:23:06.033Z,48.30
2024-03-06T14:25:37.310Z,48.90
2024-03-06T14:28:06.329Z,49.30
2024-03-06T14:30:34.687Z,49.90
2024-03-06T14:33:03.137Z,50.20
2024-03-06T14:35:31.614Z,50.60
2024-03-06T14:38:00.047Z,50.80
2024-03-06T14:40:28.433Z,51.30
2024-03-06T14:42:57.470Z,51.50
2024-03-06T14:45:25.837Z,52.00
2024-03-06T14:47:54.730Z,52.00
2024-03-06T14:50:32.466Z,52.30
2024-03-06T14:53:01.162Z,52.50
2024-03-06T14:55:30.085Z,52.60
2024-03-06T14:57:58.432Z,53.00
2024-03-06T15:00:26.759Z,53.30
2024-03-06T15:02:55.490Z,53.70
2024-03-06T15:05:23.931Z,54.00
2024-03-06T15:07:52.318Z,54.30
2024-03-06T15:10:20.762Z,54.70
2024-03-06T15:12:49.662Z,54.70
2024-03-06T15:15:18.202Z,54.60
2024-03-06T15:17:48.931Z,54.50
2024-03-06T15:20:17.507Z,54.70
2024-03-06T15:22:46.675Z,55.00
2024-03-06T15:25:16.159Z,55.40
2024-03-06T15:27:44.488Z,55.80
2024-03-06T15:30:13.616Z,56.00
2024-03-06T15:32:42.191Z,56.00
2024-03-06T15:35:11.210Z,56.30
2024-03-06T15:37:40.110Z,56.40
2024-03-06T15:40:12.072Z,56.60
2024-03-06T15:42:40.585Z,56.30
2024-03-06T15:45:09.443Z,56.00
2024-03-06T15:47:39.605Z,56.00
2024-03-06T15:50:13.208Z,56.20
2024-03-06T15:52:42.026Z,56.80
2024-03-06T15:55:12.051Z,56.90
2024-03-06T15:57:41.674Z,57.00
2024-03-06T16:00:11.960Z,57.10
2024-03-06T16:02:41.037Z,57.00
2024-03-06T16:05:10.772Z,57.20
2024-03-06T16:07:44.552Z,57.30
2024-03-06T16:10:20.024Z,57.40
2024-03-06T16:12:48.540Z,57.90
2024-03-06T16:15:18.101Z,57.80
2024-03-06T16:17:48.418Z,58.10
2024-03-06T16:20:16.932Z,58.30
2024-03-06T16:22:45.331Z,58.60
2024-03-06T16:25:13.673Z,58.80
2024-03-06T16:27:42.033Z,59.20
2024-03-06T16:30:11.817Z,59.40
2024-03-06T16:32:40.656Z,59.50
2024-03-06T16:35:11.174Z,59.70
2024-03-06T16:37:39.580Z,60.20
2024-03-06T16:40:09.562Z,60.00
2024-03-06T16:42:38.055Z,60.00
2024-03-06T16:45:07.326Z,60.00
2024-03-06T16:47:35.724Z,60.10
2024-03-06T16:50:04.579Z,61.10
2024-03-06T16:52:33.265Z,61.20
2024-03-06T16:55:01.752Z,61.50
2024-03-06T16:57:30.150Z,62.10
2024-03-06T16:59:58.539Z,62.30
2024-03-06T17:02:26.987Z,62.60
2024-03-06T17:04:55.359Z,62.60
2024-03-06T17:07:23.720Z,62.80
2024-03-06T17:09:52.105Z,62.90
2024-03-06T17:12:20.484Z,63.40
2024-03-06T17:14:49.792Z,63.90
2024-03-06T17:17:18.182Z,64.00
2024-03-06T17:19:47.651Z,64.00
2024-03-06T17:22:16.035Z,64.50
2024-03-06T17:24:44.514Z,64.90
2024-03-06T17:27:13.251Z,65.70
2024-03-06T17:29:41.704Z,65.80
2024-03-06T17:32:11.816Z,66.00
2024-03-06T17:34:40.252Z,66.40
2024-03-06T17:37:09.503Z,66.70
2024-03-06T17:39:37.947Z,67.30
2024-03-06T17:42:06.764Z,67.30
2024-03-06T17:44:35.255Z,67.10
2024-03-06T17:47:03.922Z,67.00
2024-03-06T17:49:32.754Z,67.10
2024-03-06T17:52:01.076Z,67.60
2024-03-06T17:54:29.516Z,68.30
2024-03-06T17:57:00.904Z,68.70
2024-03-06T17:59:29.277Z,69.20
2024-03-06T18:01:57.698Z,69.50
2024-03-06T18:04:26.606Z,69.60
2024-03-06T18:06:55.373Z,70.10
2024-03-06T18:09:23.714Z,70.30
2024-03-06T18:11:52.831Z,70.90
2024-03-06T18:14:21.367Z,71.70
2024-03-06T18:16:50.129Z,71.50
2024-03-06T18:19:18.950Z,72.10
2024-03-06T18:21:48.437Z,72.40
2024-03-06T18:24:17.237Z,72.70
2024-03-06T18:26:49.028Z,72.90
2024-03-06T18:29:17.747Z,73.40
2024-03-06T18:31:46.468Z,73.40
2024-03-06T18:34:15.631Z,73.70
2024-03-06T18:36:44.000Z,73.80
2024-03-06T18:39:12.898Z,74.30
2024-03-06T18:41:41.347Z,74.40
2024-03-06T18:44:10.110Z,75.70
2024-03-06T18:46:41.114Z,75.90
2024-03-06T18:49:09.910Z,76.10
2024-03-06T18:51:38.268Z,76.20
2024-03-06T18:54:06.786Z,76.30
2024-03-06T18:56:36.959Z,76.40
2024-03-06T18:59:05.437Z,76.50
2024-03-06T19:01:33.905Z,76.60
2024-03-06T19:04:02.263Z,77.20
2024-03-06T19:06:30.586Z,77.10
2024-03-06T19:08:59.211Z,77.50
2024-03-06T19:11:27.701Z,77.40
2024-03-06T19:13:56.094Z,77.40
2024-03-06T19:16:25.264Z,77.60
2024-03-06T19:18:53.590Z,77.70
2024-03-06T19:21:22.722Z,78.20
2024-03-06T19:23:51.086Z,78.30
2024-03-06T19:26:19.798Z,78.50
2024-03-06T19:28:48.192Z,78.60
2024-03-06T19:31:16.583Z,79.30
2024-03-06T19:33:45.058Z,79.20
2024-03-06T19:36:13.495Z,79.30
2024-03-06T19:38:41.920Z,79.20
2024-03-06T19:41:10.309Z,79.60
2024-03-06T19:43:40.385Z,80.10
2024-03-06T19:46:09.098Z,80.10
2024-03-06T19:48:37.479Z,80.40
2024-03-06T19:51:06.740Z,80.40
2024-03-06T19:53:39.689Z,80.70
2024-03-06T19:56:08.637Z,80.70
2024-03-06T19:58:37.006Z,80.70
2024-03-06T20:01:05.544Z,80.80
2024-03-06T20:03:33.972Z,80.80
2024-03-06T20:06:03.477Z,81.00
2024-03-06T20:08:32.124Z,81.50
2024-03-06T20:11:00.617Z,81.20
2024-03-06T20:13:29.016Z,81.00
2024-03-06T20:15:58.600Z,81.00
2024-03-06T20:18:26.972Z,81.30
2024-03-06T20:20:55.326Z,80.90
2024-03-06T20:23:23.748Z,80.90
2024-03-06T20:25:54.138Z,80.80
2024-03-06T20:28:23.912Z,80.80
2024-03-06T20:30:54.619Z,80.50
2024-03-06T20:33:23.019Z,80.60
2024-03-06T20:35:51.516Z,80.90
2024-03-06T20:38:22.101Z,81.20
2024-03-06T20:40:52.317Z,81.30
2024-03-06T20:43:23.909Z,81.60
2024-03-06T20:45:53.791Z,81.70
2024-03-06T20:48:22.195Z,81.70
2024-03-06T20:50:51.403Z,82.00
2024-03-06T20:53:19.819Z,81.70
2024-03-06T20:55:49.404Z,82.10
2024-03-06T20:58:19.053Z,81.90
2024-03-06T21:00:48.214Z,82.10
2024-03-06T21:03:16.875Z,82.10
2024-03-06T21:05:45.904Z,81.90
2024-03-06T21:08:14.501Z,82.30
2024-03-06T21:10:43.144Z,82.20
2024-03-06T21:13:12.469Z,82.60
2024-03-06T21:15:40.801Z,82.60
2024-03-06T21:18:10.706Z,82.90
2024-03-06T21:20:39.159Z,82.90
2024-03-06T21:23:08.480Z,82.40
2024-03-06T21:25:36.880Z,82.40
2024-03-06T21:28:05.462Z,83.00
2024-03-06T21:30:33.890Z,82.90
2024-03-06T21:33:02.704Z,83.20
2024-03-06T21:35:31.185Z,83.40
2024-03-06T21:37:59.535Z,83.10
2024-03-06T21:40:27.881Z,83.00
2024-03-06T21:42:56.203Z,82.80
2024-03-06T21:45:25.737Z,83.00
2024-03-06T21:47:54.172Z,83.20
2024-03-06T21:50:22.788Z,83.40
2024-03-06T21:52:51.116Z,83.30
2024-03-06T21:55:19.467Z,83.40
2024-03-06T21:57:48.662Z,83.10
2024-03-06T22:00:17.890Z,83.20
2024-03-06T22:02:46.474Z,83.80
2024-03-06T22:05:15.847Z,83.80
2024-03-06T22:07:45.663Z,84.30
2024-03-06T22:10:14.503Z,84.20
2024-03-06T22:12:42.835Z,84.10
2024-03-06T22:15:11.685Z,83.70
2024-03-06T22:17:40.089Z,83.60
2024-03-06T22:20:09.493Z,83.90
2024-03-06T22:22:38.255Z,83.80
2024-03-06T22:25:07.469Z,84.00
2024-03-06T22:27:35.820Z,84.30
2024-03-06T22:30:04.189Z,84.40
2024-03-06T22:32:32.710Z,84.30
2024-03-06T22:35:01.598Z,84.30
2024-03-06T22:37:29.982Z,84.10
2024-03-06T22:39:58.305Z,84.20
2024-03-06T22:42:26.666Z,84.10
2024-03-06T22:44:55.025Z,84.40
2024-03-06T22:47:23.951Z,84.70
2024-03-06T22:49:52.394Z,84.90
2024-03-06T22:52:21.280Z,84.70
2024-03-06T22:54:49.645Z,84.70
2024-03-06T22:57:17.998Z,84.30
2024-03-06T22:59:46.405Z,84.80
2024-03-06T23:02:14.862Z,84.70
2024-03-06T23:04:43.837Z,84.40
2024-03-06T23:07:12.296Z,84.70
2024-03-06T23:09:40.796Z,85.20
2024-03-06T23:12:09.358Z,84.70
2024-03-06T23:14:38.639Z,84.60
2024-03-06T23:17:07.823Z,84.80
2024-03-06T23:19:36.291Z,84.50
2024-03-06T23:22:05.132Z,84.70
2024-03-06T23:24:34.127Z,84.80
2024-03-06T23:27:02.558Z,84.90
2024-03-06T23:29:30.953Z,85.10
2024-03-06T23:31:59.501Z,85.60
2024-03-06T23:34:27.899Z,85.70
2024-03-06T23:36:56.378Z,85.90
2024-03-06T23:39:24.705Z,86.00
2024-03-06T23:41:53.095Z,86.30
2024-03-06T23:44:21.948Z,86.00
2024-03-06T23:46:50.353Z,85.90
2024-03-06T23:49:19.145Z,85.90
2024-03-06T23:51:48.915Z,86.20
2024-03-06T23:54:19.002Z,86.30
2024-03-06T23:56:47.747Z,86.60
2024-03-06T23:59:16.203Z,86.30
